Date,TemperatureHighF,TemperatureAvgF,TemperatureLowF,DewpointHighF,DewpointAvgF,DewpointLowF,HumidityHigh,HumidityAvg,HumidityLow,PressureMaxIn,PressureMinIn,WindSpeedMaxMPH,WindSpeedAvgMPH,GustSpeedMaxMPH,PrecipitationSumIn
2013-2-4,28.5,20.1,12.3,15.8,9.0,4.7,85,64,37,29.87,29.67,7,1,19,0.00
2013-2-5,30.0,23.8,17.3,20.0,14.1,10.1,82,67,52,29.93,29.84,2,0,8,0.00
2013-2-6,37.0,28.2,21.1,30.8,15.8,1.6,87,63,35,30.24,29.82,5,1,16,0.01
2013-2-7,32.1,23.2,12.3,11.6,5.6,1.8,72,48,29,30.44,30.24,3,1,11,0.00
2013-2-8,30.9,26.0,18.8,26.9,19.4,4.1,90,77,41,30.37,29.58,9,4,24,0.00
2013-2-9,23.5,18.5,13.5,19.7,14.0,4.9,90,83,67,30.18,29.59,8,4,27,0.00
2013-2-10,34.6,17.7,-4.8,19.0,6.8,-11.0,79,63,40,30.37,30.19,6,0,8,0.01
2013-2-11,44.1,32.1,9.9,42.8,29.2,3.3,96,89,74,30.27,29.55,17,1,17,0.00
2013-2-12,42.5,37.0,34.0,38.2,28.1,20.8,96,71,53,29.83,29.57,17,2,18,0.00
2013-2-13,40.8,34.5,31.0,25.2,22.4,20.5,78,61,46,29.80,29.62,12,1,14,0.00
2013-2-14,42.8,32.5,22.5,26.1,22.1,18.1,89,68,39,29.90,29.63,8,0,9,0.01
2013-2-15,50.4,37.2,25.7,33.0,27.8,19.6,91,71,46,29.91,29.81,12,1,14,0.00
2013-2-16,38.0,33.0,27.5,31.4,25.0,15.8,91,74,50,29.88,29.64,16,1,18,0.01
2013-2-17,27.5,21.8,13.6,15.8,2.3,-2.2,61,43,29,29.73,29.43,25,5,26,0.00
2013-2-18,28.4,19.8,11.6,4.4,-2.2,-6.3,54,38,23,30.10,29.73,18,3,21,0.00
2013-2-19,46.2,33.2,17.3,39.8,23.5,4.3,93,69,49,30.11,29.49,12,1,22,0.01
2013-2-20,37.8,29.9,24.5,36.0,16.3,8.3,93,58,40,29.76,29.49,19,4,26,0.00
2013-2-21,29.7,25.6,23.5,14.5,10.8,7.8,68,53,42,30.20,29.74,18,5,18,0.00
2013-2-22,40.9,28.6,15.9,21.2,15.8,11.1,84,61,38,30.31,30.19,11,3,11,0.00
2013-2-25,39.5,33.9,26.7,33.5,29.1,24.7,93,83,66,30.16,29.83,3,0,6,0.00
2013-2-26,41.2,35.9,31.5,35.8,28.0,24.3,92,74,53,30.24,30.02,7,1,16,0.00
2013-2-27,43.1,38.3,34.1,41.5,35.7,27.8,94,90,74,30.01,29.51,11,4,26,0.01
2013-2-28,43.6,36.8,32.4,38.6,33.5,29.9,95,88,71,29.54,29.46,3,0,3,0.00
2013-3-1,44.6,36.7,31.3,37.0,27.6,24.1,95,71,48,29.62,29.47,7,1,13,0.00
2013-3-2,38.9,35.0,32.1,25.4,24.5,22.0,73,65,56,29.62,29.55,5,2,8,0.00
2013-3-3,34.9,31.5,29.1,27.8,24.2,20.1,86,74,65,29.58,29.52,10,1,10,0.00
2013-3-4,37.5,30.6,24.4,22.1,19.5,16.8,75,63,49,29.73,29.57,20,6,20,0.01
2013-3-5,46.2,34.2,23.9,27.7,22.9,18.3,82,64,45,29.99,29.73,10,6,10,0.00
2013-3-6,40.5,35.0,30.0,34.7,29.9,24.7,90,82,64,29.97,29.91,26,5,26,0.01
2013-3-7,35.2,32.7,30.7,31.0,28.3,25.2,93,84,69,29.97,29.91,17,4,20,0.00
2013-3-8,35.5,32.3,28.8,33.8,30.4,27.2,94,93,87,30.09,29.87,12,0,16,0.07
2013-3-9,53.2,34.8,18.9,32.0,23.0,16.7,96,68,27,30.26,30.09,9,1,11,0.01
2013-3-10,52.6,34.2,18.4,31.2,24.2,14.9,90,70,35,30.32,30.19,10,0,11,0.00
2013-3-11,52.3,42.2,34.7,40.9,35.1,28.9,89,77,52,30.23,30.02,11,1,11,0.00
2013-3-12,53.9,48.7,41.8,51.9,45.8,37.3,93,90,81,30.03,29.60,16,2,16,0.58
2013-3-13,48.2,39.3,31.5,38.8,26.6,18.6,89,63,33,29.73,29.66,17,2,17,0.00
2013-3-14,36.6,29.0,23.0,25.2,13.3,5.2,65,52,36,29.78,29.69,20,3,25,0.00
2013-3-15,42.1,31.2,22.1,27.6,15.9,2.9,80,55,28,29.81,29.58,13,2,17,0.00
2013-3-16,38.5,32.3,26.3,21.6,13.7,6.8,64,47,29,29.81,29.64,11,1,11,0.00
2013-3-17,36.8,29.5,22.4,15.0,8.6,1.4,67,44,22,30.25,29.80,19,2,19,0.00
2013-3-18,40.3,28.4,14.0,24.3,8.5,-1.0,82,48,18,30.37,30.02,15,1,16,0.00
2013-3-19,35.9,32.1,28.2,32.7,29.2,24.3,92,89,82,30.05,29.55,13,2,18,0.26
2013-3-20,38.2,30.1,23.8,29.5,19.4,14.9,92,66,41,29.74,29.63,13,2,14,0.23
2013-3-21,39.8,29.2,19.2,22.8,15.2,6.7,88,59,27,29.74,29.52,8,1,8,0.10
2013-3-22,38.3,30.5,18.9,23.2,16.9,11.0,76,57,41,29.71,29.56,19,4,19,0.02
2013-3-23,42.1,34.4,29.3,23.3,18.9,15.1,72,54,35,29.75,29.62,22,5,22,0.00
2013-3-24,47.3,35.9,27.0,24.2,21.2,18.7,75,56,35,29.77,29.64,14,1,16,0.00
2013-3-25,45.8,35.6,26.6,28.6,24.8,21.8,87,66,43,29.68,29.40,19,3,19,0.00
2013-3-26,46.0,35.9,26.3,31.5,24.6,18.0,83,65,37,29.74,29.46,13,1,14,0.00
2013-3-27,52.3,37.8,20.8,31.2,23.9,16.2,87,60,32,29.81,29.70,18,1,18,0.00
2013-3-28,52.3,40.6,31.2,36.5,30.7,23.9,88,70,39,29.97,29.80,11,1,12,0.03
2013-3-29,56.7,43.4,29.1,35.4,28.9,24.7,90,60,34,29.99,29.91,12,1,12,0.00
2013-3-30,56.5,44.3,29.0,37.3,22.5,13.8,82,47,19,30.03,29.94,18,1,18,0.00
2013-3-31,58.7,43.2,24.4,39.4,26.6,18.6,83,57,24,30.04,29.57,19,2,19,0.04
2013-4-1,61.2,44.5,32.2,44.2,34.5,14.5,94,70,40,29.74,29.44,21,2,21,0.26
2013-4-2,39.9,32.6,27.0,17.4,12.5,6.1,59,44,26,29.90,29.74,17,3,19,0.00
2013-4-3,44.2,34.8,28.1,16.5,12.3,8.0,61,40,24,30.13,29.88,21,4,24,0.00
2013-4-4,55.6,39.5,23.3,24.7,16.9,11.6,72,43,19,30.25,29.97,12,2,17,0.00
2013-4-5,59.5,44.2,32.7,28.0,23.4,14.8,75,48,21,29.97,29.58,21,2,21,0.00
2013-4-6,47.7,38.1,27.5,24.9,11.2,3.9,61,35,18,30.24,29.82,19,2,20,0.00
2013-4-7,56.9,43.2,25.3,39.5,26.6,12.0,80,54,29,30.24,29.89,24,3,24,0.00
2013-4-8,66.1,51.9,36.0,50.5,36.5,30.5,94,61,27,29.98,29.88,10,1,10,0.00
2013-4-9,69.4,58.2,47.7,56.3,41.3,36.5,91,56,33,29.94,29.77,17,2,21,0.04
2013-4-10,67.1,56.5,47.4,53.4,47.0,40.3,93,72,49,29.89,29.73,10,1,10,0.15
2013-4-11,57.2,49.2,39.6,47.6,37.6,26.3,91,66,40,30.04,29.73,12,1,13,0.07
2013-4-12,39.6,37.9,37.0,35.6,34.4,31.6,91,87,73,30.05,29.70,16,2,19,0.50
2013-4-13,53.5,44.4,35.8,41.6,35.1,31.8,92,72,46,29.86,29.67,11,1,12,0.08
2013-4-14,52.3,42.3,30.9,44.6,28.8,21.5,92,62,36,30.15,29.84,19,1,19,0.00
2013-4-15,62.1,44.4,26.9,33.2,28.2,22.1,87,57,31,30.30,30.15,11,1,11,0.00
2013-4-16,68.4,51.3,33.7,49.9,40.2,27.8,90,68,38,30.30,29.98,19,3,21,0.01
2013-4-17,66.9,55.8,41.8,50.9,36.3,26.7,87,51,23,30.25,29.99,15,2,16,0.01
2013-4-18,62.4,49.7,32.4,45.0,32.3,25.4,84,55,28,30.32,30.03,16,2,18,0.00
2013-4-19,74.0,62.7,52.0,62.3,56.8,45.0,94,82,57,30.03,29.55,21,4,24,0.00
2013-4-20,65.0,51.0,39.6,61.0,37.3,20.5,91,63,31,30.19,29.53,14,2,21,0.00
2013-4-21,53.5,41.1,28.5,28.1,19.6,14.1,70,44,22,30.57,30.19,18,2,18,0.00
2013-4-22,56.9,42.7,28.2,32.2,26.5,19.3,87,57,28,30.64,30.48,17,3,21,0.00
2013-4-23,42.2,39.7,35.9,37.6,33.8,28.0,87,79,67,30.48,30.02,12,2,16,0.00
2013-4-24,74.6,54.8,41.2,46.3,41.4,37.6,89,66,28,30.02,29.71,14,2,19,0.00
2013-4-25,61.3,51.8,37.8,50.2,32.9,18.6,90,53,21,30.19,29.74,19,2,19,0.00
2013-4-26,66.9,49.4,28.7,37.5,29.6,23.4,87,52,21,30.32,30.19,12,1,17,0.00
2013-4-27,67.3,51.3,31.9,39.3,33.0,27.2,90,54,23,30.33,30.18,12,1,12,0.00
2013-4-28,71.8,55.4,36.2,40.7,33.7,26.9,89,49,23,30.25,30.10,12,1,14,0.00
2013-4-29,68.3,55.4,44.9,45.1,33.2,19.8,81,47,21,30.17,30.10,13,1,13,0.00
2013-4-30,74.4,59.2,46.0,39.6,30.2,19.6,74,39,15,30.26,30.15,11,1,12,0.00
2013-5-1,76.0,56.4,33.1,44.2,33.3,25.9,80,46,19,30.38,30.25,13,1,13,0.00
2013-5-2,82.4,59.6,38.3,46.1,37.4,27.7,89,50,19,30.37,30.19,19,2,27,0.00
2013-5-3,69.1,55.2,38.3,44.4,38.5,30.3,82,55,35,30.42,30.27,16,2,17,0.00
2013-5-4,72.0,54.7,36.8,46.0,35.1,23.5,91,54,18,30.29,30.15,18,2,20,0.00
2013-5-5,71.8,51.9,29.7,41.9,33.6,24.3,88,54,23,30.24,30.11,13,1,14,0.00
2013-5-6,75.4,56.4,38.0,49.5,41.7,34.2,92,63,26,30.19,30.03,10,1,10,0.00
2013-5-7,81.6,62.8,40.8,54.6,47.4,37.2,93,62,28,30.09,29.98,14,1,14,0.00
2013-5-8,72.0,61.8,51.1,61.4,56.1,48.6,95,83,57,30.07,29.94,20,2,24,0.30
2013-5-9,67.3,59.9,55.6,60.0,56.6,53.7,96,89,68,29.94,29.78,5,0,6,0.21
2013-5-10,80.1,66.2,53.8,62.4,54.3,48.2,97,70,35,29.88,29.80,8,0,8,0.00
2013-5-11,67.3,62.8,58.7,61.5,58.3,53.1,94,86,71,29.81,29.58,14,1,17,0.32
2013-5-12,69.8,59.5,48.6,59.3,48.0,25.1,95,69,37,29.76,29.50,17,1,19,0.02
2013-5-13,56.7,46.5,34.0,35.0,29.8,24.5,89,55,32,29.97,29.76,12,1,15,0.00
2013-5-14,56.6,46.2,35.0,35.8,30.3,23.4,88,58,29,29.99,29.92,12,1,13,0.00
2013-5-15,65.2,47.5,29.3,52.0,38.3,26.2,92,74,34,29.99,29.59,16,1,16,0.06
2013-5-16,81.8,63.7,45.4,66.4,42.8,32.9,96,56,19,29.71,29.57,20,1,21,0.00
2013-5-17,56.0,55.2,53.9,43.1,42.3,41.4,64,62,60,29.72,29.71,3,0,7,0.00
2013-5-20,83.2,67.6,56.0,66.3,60.6,54.3,97,80,52,30.09,29.83,3,0,8,0.01
2013-5-21,89.7,70.5,54.5,74.4,62.0,51.6,96,77,46,29.90,29.69,6,1,13,0.03
2013-5-22,82.2,65.8,53.3,70.8,60.7,50.4,95,84,64,29.92,29.72,4,0,12,0.21
2013-5-23,73.5,68.1,65.3,69.2,65.4,63.7,95,91,84,29.80,29.69,4,1,11,0.04
2013-5-24,66.4,60.3,45.7,65.8,57.0,42.4,98,89,73,29.79,29.54,5,1,17,0.07
2013-5-25,46.8,44.9,41.3,45.5,43.1,38.9,95,93,90,29.78,29.70,5,2,20,0.03
2013-5-26,55.4,48.5,40.3,45.8,40.5,36.3,92,75,55,30.05,29.71,20,3,21,0.04
2013-5-27,72.0,53.7,35.8,48.2,38.3,32.7,96,63,24,30.10,30.00,16,1,16,0.03
2013-5-28,75.1,58.1,38.2,54.8,44.7,35.8,95,66,29,30.14,30.06,10,0,10,0.02
2013-5-29,79.9,66.0,57.6,67.8,61.2,54.5,96,85,61,30.07,29.87,12,0,26,0.03
2013-5-30,89.0,74.2,61.8,72.3,66.4,60.4,98,79,46,30.01,29.92,10,0,10,0.03
2013-5-31,92.9,78.2,62.9,72.7,64.9,56.8,97,68,32,30.01,29.86,11,0,11,0.03
2013-6-1,91.2,78.3,62.4,70.1,65.5,59.7,94,68,43,29.90,29.78,12,1,12,0.02
2013-6-2,88.2,47.6,0.0,74.8,39.5,0.0,92,41,43,29.78,29.67,17,1,17,0.00
2013-6-5,66.6,66.6,66.6,46.9,46.9,46.9,49,49,49,30.11,30.00,3,0,11,0.00
2013-6-6,74.0,63.4,48.6,59.9,49.9,33.5,89,64,41,30.10,29.98,4,0,10,0.00
2013-6-7,60.4,57.2,54.2,59.3,55.5,52.7,96,94,89,29.98,29.69,3,0,11,1.43
2013-6-8,76.0,63.1,53.3,72.1,58.2,52.5,98,86,60,29.94,29.55,3,1,13,0.58
2013-6-9,78.3,66.3,53.8,65.1,55.6,51.4,95,71,43,30.08,29.94,4,1,14,0.00
2013-6-10,68.8,61.1,51.4,63.4,58.2,49.5,97,90,79,30.10,29.86,2,0,12,0.55
2013-6-11,71.3,62.3,58.1,66.4,60.2,56.7,97,93,79,29.84,29.46,2,0,10,0.63
2013-6-12,70.3,63.7,56.7,59.9,53.4,50.5,94,70,52,29.74,29.50,20,2,20,0.01
2013-11-21,46.8,30.1,14.9,29.1,19.6,10.3,85,67,39,0.00,40.00,3,0,10,0.00
2013-11-22,49.1,44.4,37.9,47.5,41.3,29.0,94,89,70,0.00,40.00,1,0,6,0.11
2013-11-23,47.4,38.9,29.0,45.8,25.2,12.2,94,59,38,0.00,40.00,6,2,19,0.00
2013-11-24,28.5,22.3,17.2,11.8,1.2,-7.1,55,40,24,0.00,40.00,9,4,24,0.00
2013-11-25,31.8,23.1,12.4,14.8,3.8,-5.7,55,43,28,0.00,40.00,4,1,14,0.00
2013-11-26,38.8,33.9,30.4,32.9,18.8,10.9,91,55,43,30.20,29.95,4,1,14,0.07
2013-11-27,60.1,44.4,34.6,59.0,42.8,32.5,97,94,91,29.94,29.19,14,1,17,1.30
2013-11-28,35.3,33.8,32.8,32.5,29.0,24.1,92,83,70,29.59,29.38,16,3,17,0.00